Aviation Digital Data Service (ADDS)

Output produced by METARs form (0639 UTC 27 March 2017)
found at http://www.aviationweather.gov/adds/metars/
 
EPBY 270630Z 29010KT CAVOK 06/01 Q1024
TAF EPBY 270530Z 2706/2806 28010KT CAVOK
       
TAF EPCE 270500Z 2706/2715 29006KT CAVOK 
     PROB40 2706/2707 5000 BR
       
TAF EPDA 270500Z 2706/2715 27006KT CAVOK 
     BECMG 2708/2710 1500 BR BKN003 
     TEMPO 2708/2715 0800 FG OVC002
       
TAF EPDE 270500Z 2706/2715 27010KT CAVOK 
     BECMG 2708/2710 31018KT
       
EPGD 270630Z 28012KT CAVOK 06/03 Q1022
TAF EPGD 270530Z 2706/2806 28012KT CAVOK 
     PROB40 2722/2806 0200 FG OVC001
       
TAF EPIR 270500Z 2706/2715 29014KT CAVOK
       
EPKK 270630Z 21006KT 4000 BR NSC 02/M01 Q1026
TAF EPKK 270530Z 2706/2806 21007KT 4000 BR NSC 
     BECMG 2706/2709 27015G25KT CAVOK 
     BECMG 2714/2717 25010KT
       
TAF EPKS 270500Z 2706/2715 26006KT CAVOK 
     BECMG 2708/2710 26010KT
       
EPKT 270630Z 24005KT 5000 BR NSC 02/M00 Q1026
TAF EPKT 270530Z 2706/2806 22003KT 4500 BR NSC 
     BECMG 2706/2709 28010KT CAVOK
       
EPLB 270630Z 29013KT CAVOK 06/M01 Q1021
TAF EPLB 270530Z 2706/2715 28012KT CAVOK 
     TEMPO 2706/2712 29015G26KT
       
TAF EPLK 270500Z 2706/2715 26007KT CAVOK 
     TEMPO 2706/2715 30012KT
       
EPLL 270630Z 27009KT CAVOK 05/M02 Q1024
TAF EPLL 270530Z 2706/2806 28012KT CAVOK
       
TAF EPLY 270500Z 2706/2715 27010KT CAVOK
       
TAF EPMB 270500Z 2706/2715 24008KT CAVOK
       
TAF EPMM 270500Z 2706/2715 27010KT CAVOK
       
EPMO 270630Z 29012KT CAVOK 07/00 Q1022
TAF EPMO 270530Z 2706/2806 28012KT CAVOK
       
TAF EPOK 270500Z 2706/2715 27012KT CAVOK
       
EPPO 270630Z 29006KT CAVOK 07/M00 Q1026
TAF EPPO 270530Z 2706/2806 27008KT CAVOK
       
TAF EPPR 270500Z 2706/2715 29012KT CAVOK 
     PROB30 2710/2714 SCT035
       
TAF EPPW 270500Z 2706/2715 28006KT CAVOK 
     BECMG 2708/2710 29012KT
       
EPRA 270630Z 29013KT CAVOK 07/M01 Q1023
TAF EPRA 270530Z 2706/2715 30014KT CAVOK
       
EPRZ 270630Z 26013KT CAVOK 05/M01 Q1024
TAF EPRZ 270530Z 2706/2806 27013KT CAVOK 
     BECMG 2706/2709 29017G28KT 
     BECMG 2714/2717 27012KT
       
EPSC 270630Z VRB01KT CAVOK 04/02 Q1026
TAF EPSC 270530Z 2706/2806 27008KT CAVOK 
     PROB40 2803/2806 0200 FG OVC001
       
TAF EPSN 270500Z 2706/2715 27006KT CAVOK
       
EPSY 270630Z 31009KT 280V350 CAVOK 07/01 Q1021
TAF EPSY 270530Z 2706/2715 30010KT CAVOK
       
TAF EPTM 270500Z 2706/2715 28010KT CAVOK
       
EPWA 270630Z 29010KT 260V320 CAVOK 07/00 Q1022 NOSIG
TAF EPWA 270530Z 2706/2806 29012KT CAVOK
       
EPWR 270630Z 29003KT 260V320 CAVOK 03/M00 Q1027
TAF EPWR 270530Z 2706/2806 27006KT CAVOK
       
EPZG 270630Z 24009KT CAVOK 05/00 Q1027
TAF EPZG 270530Z 2706/2715 24008KT CAVOK
       
EPZG 270630Z 24009KT CAVOK 05/00 Q1027
TAF EPZG 270530Z 2706/2715 24008KT CAVOK
       
EPKK 270630Z 21006KT 4000 BR NSC 02/M01 Q1026
TAF EPKK 270530Z 2706/2806 21007KT 4000 BR NSC 
     BECMG 2706/2709 27015G25KT CAVOK 
     BECMG 2714/2717 25010KT
       
TAF EPDE 270500Z 2706/2715 27010KT CAVOK 
     BECMG 2708/2710 31018KT
       
EPSC 270630Z VRB01KT CAVOK 04/02 Q1026
TAF EPSC 270530Z 2706/2806 27008KT CAVOK 
     PROB40 2803/2806 0200 FG OVC001
       
EPRZ 270630Z 26013KT CAVOK 05/M01 Q1024
TAF EPRZ 270530Z 2706/2806 27013KT CAVOK 
     BECMG 2706/2709 29017G28KT 
     BECMG 2714/2717 27012KT
       
TAF EPKS 270500Z 2706/2715 26006KT CAVOK 
     BECMG 2708/2710 26010KT
       
EPPO 270630Z 29006KT CAVOK 07/M00 Q1026
TAF EPPO 270530Z 2706/2806 27008KT CAVOK
       
EPLL 270630Z 27009KT CAVOK 05/M02 Q1024
TAF EPLL 270530Z 2706/2806 28012KT CAVOK
       
EPWA 270630Z 29010KT 260V320 CAVOK 07/00 Q1022 NOSIG
TAF EPWA 270530Z 2706/2806 29012KT CAVOK
       
EPKT 270630Z 24005KT 5000 BR NSC 02/M00 Q1026
TAF EPKT 270530Z 2706/2806 22003KT 4500 BR NSC 
     BECMG 2706/2709 28010KT CAVOK
       
EPGD 270630Z 28012KT CAVOK 06/03 Q1022
TAF EPGD 270530Z 2706/2806 28012KT CAVOK 
     PROB40 2722/2806 0200 FG OVC001
       
EPWR 270630Z 29003KT 260V320 CAVOK 03/M00 Q1027
TAF EPWR 270530Z 2706/2806 27006KT CAVOK
       
TAF EPSN 270500Z 2706/2715 27006KT CAVOK
       
EPBY 270630Z 29010KT CAVOK 06/01 Q1024
TAF EPBY 270530Z 2706/2806 28010KT CAVOK
       
EPSY 270630Z 31009KT 280V350 CAVOK 07/01 Q1021
TAF EPSY 270530Z 2706/2715 30010KT CAVOK